Time;durP1;ratioP1;P1;durP2;ratioP2;P2;SDS_P1;SDS_P2;PMS_P1;PMS_P2;Temp;Humidity;BMP_temperature;BMP_pressure;BME280_temperature;BME280_humidity;BME280_pressure;Samples;Min_cycle;Max_cycle;Signal;HPM_P1;HPM_P2
2022/03/09 00:01:26;;;;;;;8.07;5.32;;;0.30;71.10;;;;;;6174895;23;20035;-70
2022/03/09 00:03:51;;;;;;;10.75;5.78;;;0.40;71.00;;;;;;6201840;23;20016;-71
2022/03/09 00:06:17;;;;;;;11.30;6.95;;;0.50;70.40;;;;;;6201328;23;20036;-71
2022/03/09 00:08:43;;;;;;;12.93;7.43;;;0.60;69.80;;;;;;6202727;23;20102;-71
2022/03/09 00:11:09;;;;;;;13.85;8.18;;;0.70;69.60;;;;;;6202616;23;20023;-71
2022/03/09 00:13:34;;;;;;;18.83;9.15;;;0.70;69.90;;;;;;6202385;23;20405;-71
2022/03/09 00:16:00;;;;;;;14.75;9.63;;;0.50;71.30;;;;;;6203905;23;20059;-71
2022/03/09 00:18:25;;;;;;;21.83;12.63;;;0.20;72.10;;;;;;6205675;23;20005;-71
2022/03/09 00:20:51;;;;;;;22.05;12.13;;;0.00;72.80;;;;;;6204205;23;20020;-71
2022/03/09 00:23:17;;;;;;;32.97;16.05;;;-0.10;73.60;;;;;;6204662;23;20009;-71
2022/03/09 00:25:43;;;;;;;27.60;16.08;;;0.00;73.40;;;;;;6204593;23;20019;-71
2022/03/09 00:28:08;;;;;;;27.83;15.50;;;0.20;72.40;;;;;;6203774;23;20295;-70
2022/03/09 00:30:34;;;;;;;24.20;15.02;;;0.30;72.10;;;;;;6204978;23;20028;-71
2022/03/09 00:32:59;;;;;;;17.98;9.52;;;0.30;72.80;;;;;;6204562;23;20001;-71
2022/03/09 00:35:25;;;;;;;15.85;10.45;;;0.30;72.80;;;;;;6204361;23;20020;-70
2022/03/09 00:37:51;;;;;;;25.73;12.55;;;0.20;72.50;;;;;;6204034;23;20009;-70
2022/03/09 00:40:17;;;;;;;27.20;15.73;;;0.20;74.30;;;;;;6203918;23;20095;-70
2022/03/09 00:42:43;;;;;;;19.08;11.40;;;0.20;73.00;;;;;;6204140;23;20005;-71
2022/03/09 00:45:09;;;;;;;7.18;4.68;;;0.30;73.00;;;;;;6204110;23;20012;-71
2022/03/09 00:47:35;;;;;;;7.32;5.28;;;0.20;72.50;;;;;;6205039;23;20071;-71
2022/03/09 00:50:00;;;;;;;9.43;5.70;;;0.00;74.40;;;;;;6204331;23;20434;-70
2022/03/09 00:52:26;;;;;;;9.10;6.03;;;-0.20;74.60;;;;;;6204338;23;20031;-69
2022/03/09 00:54:52;;;;;;;10.95;6.68;;;-0.40;74.30;;;;;;6205192;23;20087;-69
2022/03/09 00:57:17;;;;;;;13.35;6.15;;;-0.50;74.50;;;;;;6203139;23;20563;-69
2022/03/09 00:59:43;;;;;;;11.15;6.93;;;-0.60;75.00;;;;;;6204670;23;20802;-69
2022/03/09 01:02:09;;;;;;;11.63;6.57;;;-0.80;75.90;;;;;;6203978;23;20094;-69
2022/03/09 01:04:35;;;;;;;8.80;6.10;;;-0.80;78.00;;;;;;6203525;23;20012;-69
2022/03/09 01:07:02;;;;;;;12.35;7.45;;;-0.70;78.60;;;;;;6203729;23;20434;-67
2022/03/09 01:09:28;;;;;;;9.80;5.07;;;-0.70;79.00;;;;;;6204763;23;20017;-70
2022/03/09 01:11:54;;;;;;;12.90;5.13;;;-0.70;77.60;;;;;;6203884;23;20011;-68
2022/03/09 01:14:19;;;;;;;12.90;6.22;;;-0.90;76.70;;;;;;6205121;23;20074;-69
2022/03/09 01:16:45;;;;;;;14.20;6.93;;;-1.00;77.30;;;;;;6203395;23;20014;-68
2022/03/09 01:19:11;;;;;;;12.95;6.63;;;-1.10;77.70;;;;;;6204522;23;20020;-68
2022/03/09 01:21:36;;;;;;;10.27;6.28;;;-1.00;78.60;;;;;;6203558;23;20084;-68
2022/03/09 01:24:03;;;;;;;12.25;6.60;;;-1.00;79.00;;;;;;6204548;23;20354;-68
2022/03/09 01:26:28;;;;;;;12.52;6.30;;;-0.90;78.00;;;;;;6204106;23;20056;-68
2022/03/09 01:28:54;;;;;;;10.80;6.90;;;-1.00;77.30;;;;;;6176220;23;20043;-68
2022/03/09 01:31:20;;;;;;;11.30;6.85;;;-1.10;78.60;;;;;;6177068;23;20438;-69
2022/03/09 01:33:45;;;;;;;9.70;6.05;;;-1.20;79.30;;;;;;6205188;23;20005;-68
2022/03/09 01:36:11;;;;;;;9.27;5.60;;;-1.20;80.30;;;;;;6202965;23;20565;-68
2022/03/09 01:38:37;;;;;;;17.15;9.45;;;-1.10;81.50;;;;;;6203567;23;20048;-68
2022/03/09 01:41:02;;;;;;;20.98;12.27;;;-1.10;80.90;;;;;;6205564;23;20020;-68
2022/03/09 01:43:28;;;;;;;16.83;10.63;;;-0.90;79.60;;;;;;6204283;23;20430;-68
2022/03/09 01:45:54;;;;;;;15.75;9.65;;;-0.60;79.00;;;;;;6203749;23;20005;-68
2022/03/09 01:48:20;;;;;;;10.95;6.63;;;-0.60;80.20;;;;;;6176222;23;20268;-68
2022/03/09 01:50:46;;;;;;;7.53;4.30;;;-0.60;80.10;;;;;;6203383;23;20096;-68
2022/03/09 01:53:12;;;;;;;13.50;6.65;;;-0.60;79.60;;;;;;6202652;23;20009;-68
2022/03/09 01:55:38;;;;;;;13.82;8.05;;;-1.00;79.40;;;;;;6204870;23;20461;-68
2022/03/09 01:58:04;;;;;;;11.88;6.70;;;-1.50;81.40;;;;;;6203549;23;20110;-68
2022/03/09 02:00:29;;;;;;;12.65;6.18;;;-1.50;83.10;;;;;;6204007;23;20012;-68
2022/03/09 02:02:55;;;;;;;11.50;6.35;;;-1.50;83.10;;;;;;6203390;23;20031;-67
2022/03/09 02:05:21;;;;;;;10.55;5.18;;;-1.40;82.70;;;;;;6204142;23;20012;-68
2022/03/09 02:10:31;;;;;;;8.82;4.75;;;-1.30;83.30;;;;;;6180950;23;20086;-68
2022/03/09 02:12:57;;;;;;;9.40;4.88;;;-1.10;84.10;;;;;;6203866;23;20008;-68
2022/03/09 02:15:22;;;;;;;7.05;5.07;;;-1.10;83.60;;;;;;6202235;23;20013;-68
2022/03/09 02:17:48;;;;;;;10.05;5.65;;;-1.00;82.80;;;;;;6203886;23;20013;-68
2022/03/09 02:20:14;;;;;;;9.65;5.70;;;-1.00;82.70;;;;;;6203686;23;20042;-68
2022/03/09 02:22:41;;;;;;;8.57;4.80;;;-0.90;84.00;;;;;;6202891;23;20008;-68
2022/03/09 02:25:12;;;;;;;9.63;5.13;;;-0.90;83.50;;;;;;6203525;23;20016;-68
2022/03/09 02:27:39;;;;;;;9.77;4.63;;;-0.90;83.50;;;;;;6204052;23;20154;-67
2022/03/09 02:30:06;;;;;;;8.95;5.18;;;-0.90;84.80;;;;;;6203130;23;20021;-68
2022/03/09 02:32:32;;;;;;;9.10;5.60;;;-0.90;85.00;;;;;;6204215;23;20020;-68
2022/03/09 02:34:57;;;;;;;9.57;5.82;;;-0.80;83.90;;;;;;6203346;23;20017;-68
2022/03/09 02:37:23;;;;;;;11.80;6.03;;;-0.70;83.60;;;;;;6204124;23;20008;-68
2022/03/09 02:39:49;;;;;;;9.55;6.07;;;-0.70;83.00;;;;;;6204367;23;20038;-68
2022/03/09 02:42:15;;;;;;;9.40;6.70;;;-0.60;82.30;;;;;;6203157;23;20031;-68
2022/03/09 02:44:41;;;;;;;11.07;6.97;;;-0.50;82.30;;;;;;6203762;23;20345;-68
2022/03/09 02:47:07;;;;;;;8.48;6.03;;;-0.40;81.40;;;;;;6202739;23;20009;-68
2022/03/09 02:49:33;;;;;;;9.48;6.38;;;-0.30;81.20;;;;;;6203743;23;20028;-68
2022/03/09 02:51:59;;;;;;;12.98;6.20;;;-0.30;81.50;;;;;;6202768;23;20421;-68
2022/03/09 02:54:24;;;;;;;11.07;6.28;;;-0.40;82.70;;;;;;6204486;23;20149;-69
2022/03/09 02:56:50;;;;;;;10.63;6.88;;;-0.40;82.40;;;;;;6203632;23;20046;-68
2022/03/09 02:59:16;;;;;;;10.85;7.03;;;-0.30;83.60;;;;;;6202870;23;20084;-68
2022/03/09 03:01:41;;;;;;;13.20;7.60;;;-0.20;82.80;;;;;;6201239;23;20008;-68
2022/03/09 03:04:07;;;;;;;13.18;7.72;;;-0.10;81.10;;;;;;6203427;23;20013;-68
2022/03/09 03:06:33;;;;;;;10.13;7.13;;;0.00;81.10;;;;;;6204106;23;20546;-68
2022/03/09 03:08:59;;;;;;;8.20;5.82;;;-0.10;80.20;;;;;;6202885;23;20024;-68
2022/03/09 03:11:24;;;;;;;10.80;6.97;;;-0.10;83.30;;;;;;6204053;23;20005;-68
2022/03/09 03:13:50;;;;;;;9.63;6.30;;;-0.20;83.30;;;;;;6203339;23;20080;-68
2022/03/09 03:16:17;;;;;;;9.25;5.60;;;-0.20;84.20;;;;;;6203653;23;20398;-69
2022/03/09 03:18:42;;;;;;;13.85;5.95;;;-0.30;85.40;;;;;;6202720;23;20268;-68
2022/03/09 03:21:08;;;;;;;9.60;5.65;;;-0.40;86.50;;;;;;6203451;23;20011;-68
2022/03/09 03:23:35;;;;;;;9.95;5.30;;;-0.40;86.80;;;;;;6202361;23;20051;-68
2022/03/09 03:26:02;;;;;;;9.23;5.10;;;-0.50;87.10;;;;;;6203725;23;20000;-67
2022/03/09 03:28:28;;;;;;;7.45;4.60;;;-0.60;87.40;;;;;;6203149;23;20088;-67
2022/03/09 03:30:54;;;;;;;7.95;5.07;;;-1.00;88.30;;;;;;6202723;23;20040;-68
2022/03/09 03:33:21;;;;;;;9.00;4.75;;;-1.10;88.50;;;;;;6202746;23;20265;-67
2022/03/09 03:35:47;;;;;;;7.75;4.72;;;-1.10;89.10;;;;;;6203082;23;20071;-67
2022/03/09 03:38:13;;;;;;;5.03;4.20;;;-1.30;89.50;;;;;;6203256;23;20007;-67
2022/03/09 03:40:39;;;;;;;8.13;4.45;;;-1.30;90.20;;;;;;6203971;23;21142;-67
2022/03/09 03:43:05;;;;;;;7.57;4.55;;;-1.20;90.60;;;;;;6201679;23;20016;-68
2022/03/09 03:45:31;;;;;;;6.47;4.10;;;-1.00;90.90;;;;;;6203973;23;20054;-68
2022/03/09 03:47:57;;;;;;;8.15;5.32;;;-0.80;90.20;;;;;;6201853;23;20017;-67
2022/03/09 03:50:23;;;;;;;15.85;6.05;;;-0.60;88.20;;;;;;6205720;23;20016;-67
2022/03/09 03:52:49;;;;;;;10.35;6.22;;;-0.40;87.50;;;;;;6205539;23;20082;-67
2022/03/09 03:55:14;;;;;;;7.72;5.57;;;-0.30;86.60;;;;;;6205617;23;20012;-69
2022/03/09 03:57:40;;;;;;;9.07;5.50;;;-0.20;86.10;;;;;;6205898;23;20449;-67
2022/03/09 04:00:08;;;;;;;8.98;5.57;;;-0.10;85.00;;;;;;6203707;23;20695;-67
2022/03/09 04:02:33;;;;;;;8.82;6.20;;;0.00;84.00;;;;;;6205793;23;20008;-68
2022/03/09 04:04:59;;;;;;;9.45;5.60;;;0.10;84.20;;;;;;6205358;23;20028;-68
2022/03/09 04:07:25;;;;;;;8.48;5.78;;;0.00;84.40;;;;;;6205848;23;20654;-67
2022/03/09 04:09:50;;;;;;;10.65;5.97;;;0.00;85.70;;;;;;6204231;23;20044;-68
2022/03/09 04:12:16;;;;;;;7.30;4.57;;;-0.10;86.80;;;;;;6205611;23;20891;-68
2022/03/09 04:14:42;;;;;;;7.68;5.22;;;-0.20;88.90;;;;;;6204164;23;20013;-67
2022/03/09 04:17:07;;;;;;;9.05;5.10;;;-0.50;90.20;;;;;;6204683;23;20005;-68
2022/03/09 04:19:33;;;;;;;9.98;5.80;;;-0.60;90.30;;;;;;6205236;23;20108;-68
2022/03/09 04:21:59;;;;;;;8.15;5.85;;;-0.70;90.60;;;;;;6205468;23;20008;-68
2022/03/09 04:24:24;;;;;;;12.57;6.15;;;-0.50;90.70;;;;;;6204963;23;20430;-68
2022/03/09 04:26:51;;;;;;;9.07;5.97;;;-0.40;90.50;;;;;;6205047;23;20015;-68
2022/03/09 04:29:16;;;;;;;9.73;5.82;;;-0.30;90.00;;;;;;6205786;23;20013;-68
2022/03/09 04:31:42;;;;;;;9.27;5.53;;;-0.20;90.10;;;;;;6204003;23;20013;-68
2022/03/09 04:34:09;;;;;;;9.27;5.40;;;-0.10;89.30;;;;;;6205126;23;20338;-68
2022/03/09 04:36:35;;;;;;;8.70;5.22;;;0.00;89.30;;;;;;6204742;23;20001;-68
2022/03/09 04:39:01;;;;;;;9.05;5.35;;;0.10;87.80;;;;;;6204787;23;20159;-68
2022/03/09 04:41:27;;;;;;;9.30;4.78;;;0.20;86.80;;;;;;6204733;23;20059;-68
2022/03/09 04:43:52;;;;;;;8.00;5.00;;;0.30;86.20;;;;;;6204078;23;20032;-68
2022/03/09 04:46:19;;;;;;;6.70;4.22;;;0.30;87.60;;;;;;6203403;23;20016;-68
2022/03/09 04:48:44;;;;;;;7.43;5.38;;;0.30;89.40;;;;;;6204419;23;20015;-67
2022/03/09 04:51:11;;;;;;;7.47;5.30;;;0.10;90.10;;;;;;6204582;23;20087;-67
2022/03/09 04:53:36;;;;;;;8.90;5.03;;;0.00;91.00;;;;;;6204092;23;20001;-67
2022/03/09 04:56:03;;;;;;;10.50;5.18;;;0.00;91.00;;;;;;6204262;23;20315;-67
2022/03/09 04:58:28;;;;;;;8.50;5.43;;;0.00;90.80;;;;;;6204771;23;20036;-67
2022/03/09 05:00:54;;;;;;;14.95;6.47;;;0.10;90.70;;;;;;6201869;23;20576;-67
2022/03/09 05:03:20;;;;;;;8.00;5.68;;;0.10;90.50;;;;;;6204439;23;20005;-68
2022/03/09 05:05:45;;;;;;;23.38;6.03;;;0.20;90.30;;;;;;6205281;23;20009;-68
2022/03/09 05:08:11;;;;;;;15.00;7.88;;;0.30;90.20;;;;;;6178576;23;20008;-68
2022/03/09 05:10:37;;;;;;;13.82;7.32;;;0.30;90.00;;;;;;6204041;23;20082;-68
2022/03/09 05:13:03;;;;;;;11.93;7.13;;;0.40;88.60;;;;;;6204620;23;20226;-68
2022/03/09 05:15:29;;;;;;;17.25;8.52;;;0.50;89.60;;;;;;6203659;23;20035;-67
2022/03/09 05:17:55;;;;;;;10.93;7.22;;;0.50;88.70;;;;;;6204034;23;20032;-69
2022/03/09 05:20:21;;;;;;;12.07;7.05;;;0.50;90.10;;;;;;6178107;23;20411;-69
2022/03/09 05:22:47;;;;;;;14.15;7.70;;;0.40;90.30;;;;;;6202974;23;20028;-68
2022/03/09 05:25:13;;;;;;;14.50;8.13;;;0.40;90.40;;;;;;6204461;23;20060;-69
2022/03/09 05:27:40;;;;;;;13.10;8.45;;;0.20;90.40;;;;;;6205160;23;20517;-70
2022/03/09 05:30:07;;;;;;;18.35;10.50;;;0.00;91.40;;;;;;6195980;23;20683;-69
2022/03/09 05:32:32;;;;;;;19.65;10.40;;;0.10;91.60;;;;;;6203849;23;20004;-70
2022/03/09 05:34:58;;;;;;;17.15;10.10;;;0.30;89.30;;;;;;6204121;23;20001;-70
2022/03/09 05:37:24;;;;;;;18.95;10.63;;;0.30;90.40;;;;;;6202986;23;20009;-70
2022/03/09 05:39:50;;;;;;;20.08;11.40;;;0.40;90.50;;;;;;6204418;23;20062;-70
2022/03/09 05:42:16;;;;;;;14.65;9.50;;;0.40;90.20;;;;;;6205056;23;20373;-70
2022/03/09 05:44:41;;;;;;;14.45;8.50;;;0.50;88.70;;;;;;6203431;23;20005;-70
2022/03/09 05:47:07;;;;;;;17.95;8.98;;;0.60;87.00;;;;;;6202463;23;20012;-71
2022/03/09 05:49:33;;;;;;;17.00;10.95;;;0.60;87.10;;;;;;6203381;23;20026;-70
2022/03/09 05:51:59;;;;;;;19.35;11.35;;;0.60;89.60;;;;;;6201674;23;20349;-69
2022/03/09 05:54:24;;;;;;;15.32;9.10;;;0.50;89.50;;;;;;6203947;23;20078;-69
2022/03/09 05:56:50;;;;;;;15.75;9.60;;;0.20;89.80;;;;;;6176274;23;20008;-71
2022/03/09 05:59:17;;;;;;;18.20;10.38;;;0.10;90.40;;;;;;6203872;23;20000;-71
2022/03/09 06:01:42;;;;;;;16.17;9.68;;;0.00;90.40;;;;;;6202614;23;20011;-71
2022/03/09 06:04:08;;;;;;;15.73;10.60;;;0.10;91.00;;;;;;6203009;23;20012;-67
2022/03/09 06:06:34;;;;;;;18.85;11.05;;;0.30;90.10;;;;;;6202687;23;20080;-69
2022/03/09 06:09:00;;;;;;;16.63;10.07;;;0.60;88.70;;;;;;6203319;23;20016;-76
2022/03/09 06:11:25;;;;;;;26.42;12.57;;;0.70;86.60;;;;;;6204237;23;20001;-70
2022/03/09 06:13:51;;;;;;;18.73;11.52;;;0.80;87.10;;;;;;6201441;23;20125;-71
2022/03/09 06:16:17;;;;;;;82.93;49.28;;;1.00;86.70;;;;;;6203459;23;20009;-71
2022/03/09 06:18:46;;;;;;;63.15;36.50;;;1.20;85.80;;;;;;6202631;23;20008;-71
2022/03/09 06:21:12;;;;;;;37.95;19.98;;;1.30;84.60;;;;;;6203605;23;20329;-70
2022/03/09 06:23:38;;;;;;;52.50;28.50;;;1.40;85.70;;;;;;6202823;23;20008;-70
2022/03/09 06:26:06;;;;;;;47.17;24.52;;;1.30;86.40;;;;;;6203187;23;20023;-71
2022/03/09 06:28:32;;;;;;;30.10;18.48;;;1.20;87.40;;;;;;6202103;23;20235;-71
2022/03/09 06:30:58;;;;;;;24.20;14.02;;;1.20;87.80;;;;;;6201702;23;20465;-72
2022/03/09 06:33:24;;;;;;;21.75;14.80;;;1.20;87.80;;;;;;6202893;23;20059;-72
2022/03/09 06:35:50;;;;;;;26.00;16.83;;;1.20;88.10;;;;;;6202674;23;20004;-73
2022/03/09 06:38:16;;;;;;;27.95;17.45;;;1.10;88.30;;;;;;6203764;23;20001;-71
2022/03/09 06:40:42;;;;;;;36.28;23.95;;;1.20;89.00;;;;;;6201738;23;20430;-71
2022/03/09 06:43:08;;;;;;;28.67;18.73;;;1.30;88.60;;;;;;6203113;23;20008;-71
2022/03/09 06:45:34;;;;;;;45.20;24.92;;;1.40;88.50;;;;;;6202523;23;20083;-71
2022/03/09 06:48:00;;;;;;;43.00;24.98;;;1.60;87.40;;;;;;6203484;23;20038;-71
2022/03/09 06:50:26;;;;;;;54.47;29.77;;;1.70;86.70;;;;;;6202416;23;20023;-71
2022/03/09 06:52:52;;;;;;;54.53;29.08;;;1.70;87.40;;;;;;6200970;23;20013;-71
2022/03/09 06:55:18;;;;;;;55.45;28.90;;;1.70;88.00;;;;;;6203781;23;20311;-71
2022/03/09 06:57:43;;;;;;;61.22;32.30;;;1.60;88.40;;;;;;6203936;23;20058;-71
2022/03/09 07:00:11;;;;;;;50.90;29.73;;;1.60;88.60;;;;;;6202628;23;20075;-72
2022/03/09 07:02:41;;;;;;;77.30;38.60;;;1.70;88.80;;;;;;6202480;23;20009;-71
2022/03/09 07:05:08;;;;;;;62.10;31.95;;;1.90;87.50;;;;;;6203773;23;20032;-72
2022/03/09 07:07:34;;;;;;;51.38;26.27;;;2.10;87.00;;;;;;6175616;23;20055;-70
2022/03/09 07:10:00;;;;;;;41.70;23.52;;;2.10;88.30;;;;;;6204481;23;20103;-71
2022/03/09 07:12:26;;;;;;;41.38;24.00;;;2.20;88.50;;;;;;6202902;23;20035;-72
2022/03/09 07:14:51;;;;;;;41.70;21.42;;;2.20;87.90;;;;;;6203360;23;20018;-71
2022/03/09 07:17:18;;;;;;;44.00;24.05;;;2.10;87.90;;;;;;6203133;23;20012;-72
2022/03/09 07:19:44;;;;;;;71.13;37.25;;;2.10;88.30;;;;;;6204315;23;20434;-72
2022/03/09 07:22:10;;;;;;;72.20;37.45;;;2.30;87.30;;;;;;6202468;23;20053;-72
2022/03/09 07:24:36;;;;;;;74.78;38.97;;;2.50;87.10;;;;;;6203588;23;20119;-72
2022/03/09 07:27:02;;;;;;;48.97;26.75;;;2.60;87.40;;;;;;6203748;23;20005;-72
2022/03/09 07:29:27;;;;;;;35.60;18.05;;;2.80;85.80;;;;;;6202961;23;20027;-72
2022/03/09 07:31:53;;;;;;;37.92;19.48;;;3.10;83.70;;;;;;6204347;23;20008;-72
2022/03/09 07:34:23;;;;;;;21.13;11.95;;;3.20;84.50;;;;;;6201682;23;20730;-72
2022/03/09 07:36:49;;;;;;;18.83;10.13;;;3.40;82.50;;;;;;6202695;23;20008;-72
2022/03/09 07:39:16;;;;;;;19.98;13.88;;;3.50;82.00;;;;;;6202818;23;20063;-72
2022/03/09 07:41:42;;;;;;;23.63;14.18;;;3.70;82.20;;;;;;6202034;23;20021;-73
2022/03/09 07:44:08;;;;;;;25.02;14.25;;;3.70;79.90;;;;;;6203339;23;20055;-71
2022/03/09 07:46:34;;;;;;;19.92;12.93;;;3.90;79.70;;;;;;6202400;23;20000;-71
2022/03/09 07:49:00;;;;;;;20.67;12.40;;;4.00;80.10;;;;;;6202434;23;20794;-73
2022/03/09 07:51:26;;;;;;;15.38;10.23;;;4.00;78.60;;;;;;6203660;23;20036;-73
2022/03/09 07:53:51;;;;;;;17.30;11.70;;;4.00;78.40;;;;;;6203138;23;20009;-73
2022/03/09 07:56:17;;;;;;;52.67;28.85;;;4.10;78.70;;;;;;6203903;23;20020;-73
2022/03/09 07:58:42;;;;;;;29.25;18.20;;;4.30;77.70;;;;;;6202443;23;20000;-72
2022/03/09 08:01:08;;;;;;;13.25;8.88;;;4.40;77.60;;;;;;6202863;23;20054;-73
2022/03/09 08:03:34;;;;;;;12.85;8.10;;;4.50;76.60;;;;;;6203714;23;20000;-73
2022/03/09 08:06:00;;;;;;;11.75;8.30;;;4.60;76.90;;;;;;6177346;23;20489;-74
2022/03/09 08:08:26;;;;;;;14.63;9.13;;;4.60;76.90;;;;;;6203122;23;20381;-73
2022/03/09 08:10:52;;;;;;;14.60;9.65;;;4.70;77.00;;;;;;6203436;23;20020;-74
2022/03/09 08:13:17;;;;;;;14.73;9.90;;;4.80;76.80;;;;;;6203832;23;20112;-73
2022/03/09 08:15:43;;;;;;;14.52;10.23;;;4.80;76.70;;;;;;6172699;23;20616;-74
2022/03/09 08:18:09;;;;;;;16.35;11.40;;;4.90;76.10;;;;;;6200114;23;20103;-75
2022/03/09 08:20:35;;;;;;;18.02;10.98;;;5.00;75.00;;;;;;6199259;23;20009;-73
2022/03/09 08:23:01;;;;;;;14.48;9.27;;;5.10;75.30;;;;;;6202228;23;20366;-74
2022/03/09 08:25:27;;;;;;;14.18;9.68;;;5.30;74.90;;;;;;6200156;23;20096;-73
2022/03/09 08:27:53;;;;;;;18.02;11.63;;;5.40;73.20;;;;;;6200825;23;20035;-74
2022/03/09 08:30:19;;;;;;;20.23;12.70;;;5.40;73.30;;;;;;6197510;23;20021;-74
2022/03/09 08:32:44;;;;;;;23.23;15.10;;;5.50;73.50;;;;;;6201098;23;20032;-73
2022/03/09 08:35:10;;;;;;;17.60;11.85;;;5.80;72.40;;;;;;6200203;23;20011;-73
2022/03/09 08:37:36;;;;;;;13.85;10.48;;;5.80;72.50;;;;;;6204082;23;20096;-73
2022/03/09 08:40:03;;;;;;;17.10;12.20;;;5.80;71.90;;;;;;6201926;23;20447;-74
2022/03/09 08:42:29;;;;;;;15.02;10.70;;;5.90;72.00;;;;;;6204047;23;20887;-73
2022/03/09 08:44:55;;;;;;;15.73;10.07;;;5.90;71.70;;;;;;6203935;23;20127;-73
2022/03/09 08:47:21;;;;;;;13.43;10.07;;;6.10;71.70;;;;;;6205579;23;20303;-73
2022/03/09 08:49:47;;;;;;;11.85;9.32;;;6.20;70.90;;;;;;6205351;23;20224;-73
2022/03/09 08:52:14;;;;;;;14.65;9.23;;;6.40;69.30;;;;;;6204178;23;20084;-73
2022/03/09 08:54:40;;;;;;;13.50;9.60;;;6.50;68.90;;;;;;6204481;23;20017;-73
2022/03/09 08:57:06;;;;;;;12.63;8.93;;;6.70;69.10;;;;;;6201543;23;20012;-73
2022/03/09 08:59:32;;;;;;;16.90;9.55;;;6.80;68.90;;;;;;6204018;23;20013;-73
2022/03/09 09:01:58;;;;;;;10.75;8.27;;;6.90;68.60;;;;;;6204139;23;20012;-73
2022/03/09 09:04:23;;;;;;;18.30;9.30;;;7.00;68.70;;;;;;6203751;23;20017;-72
2022/03/09 09:06:49;;;;;;;16.35;9.82;;;7.10;67.70;;;;;;6203858;23;20229;-73
2022/03/09 09:09:17;;;;;;;12.48;8.13;;;7.10;67.90;;;;;;6203612;23;20051;-74
2022/03/09 09:11:46;;;;;;;10.07;7.35;;;7.20;67.60;;;;;;6203422;23;20015;-73
2022/03/09 09:14:12;;;;;;;13.25;8.07;;;7.50;66.90;;;;;;6202709;23;20007;-74
2022/03/09 09:16:38;;;;;;;10.45;7.38;;;7.70;65.70;;;;;;6200744;23;20012;-74
2022/03/09 09:19:05;;;;;;;8.25;5.30;;;8.00;65.40;;;;;;6203235;23;20008;-74
2022/03/09 09:21:31;;;;;;;9.48;6.28;;;8.20;65.00;;;;;;6204377;23;20027;-74
2022/03/09 09:23:57;;;;;;;7.28;4.57;;;8.50;63.70;;;;;;6202753;23;20012;-74
2022/03/09 09:26:22;;;;;;;6.30;4.57;;;8.70;62.90;;;;;;6201106;23;20742;-74
2022/03/09 09:28:48;;;;;;;5.78;4.68;;;8.90;61.90;;;;;;6203927;23;20008;-74
2022/03/09 09:31:14;;;;;;;5.15;3.55;;;9.10;60.00;;;;;;6204424;23;20012;-74
2022/03/09 09:33:39;;;;;;;4.55;2.75;;;9.10;59.40;;;;;;6204606;23;20032;-74
2022/03/09 09:36:05;;;;;;;3.83;3.03;;;8.90;60.00;;;;;;6203773;23;20071;-74
2022/03/09 09:38:31;;;;;;;4.57;2.63;;;8.70;60.30;;;;;;6204039;23;20004;-75
2022/03/09 09:40:56;;;;;;;4.07;2.72;;;8.80;60.60;;;;;;6202363;23;20086;-74
2022/03/09 09:43:24;;;;;;;4.70;3.50;;;8.80;60.80;;;;;;6201336;23;20120;-74
2022/03/09 09:45:50;;;;;;;4.45;3.50;;;8.90;61.60;;;;;;6203329;23;20004;-74
2022/03/09 09:48:17;;;;;;;5.50;3.15;;;9.00;60.90;;;;;;6202486;23;20009;-73
2022/03/09 09:50:44;;;;;;;5.45;3.10;;;9.20;59.60;;;;;;6204241;23;20036;-72
2022/03/09 09:53:13;;;;;;;4.30;2.92;;;9.20;59.60;;;;;;6204295;23;20015;-73
2022/03/09 09:55:39;;;;;;;6.43;2.85;;;9.30;59.00;;;;;;6202917;23;20032;-73
2022/03/09 09:58:05;;;;;;;3.42;2.70;;;9.40;58.50;;;;;;6203685;23;20008;-73
2022/03/09 10:00:32;;;;;;;3.72;3.20;;;9.40;58.60;;;;;;6201724;23;20020;-74
2022/03/09 10:02:58;;;;;;;4.22;3.13;;;9.40;58.50;;;;;;6202988;23;20008;-73
2022/03/09 10:05:24;;;;;;;6.05;3.47;;;9.20;58.80;;;;;;6202449;23;20058;-74
2022/03/09 10:08:05;;;;;;;3.53;3.10;;;9.00;59.10;;;;;;6203315;23;20012;-73
2022/03/09 10:10:52;;;;;;;5.15;4.15;;;8.90;59.30;;;;;;6202214;23;20061;-73
2022/03/09 10:13:20;;;;;;;5.90;4.10;;;8.90;59.60;;;;;;6201715;23;20016;-73
2022/03/09 10:16:08;;;;;;;3.47;3.15;;;9.00;60.40;;;;;;6202759;23;20091;-74
2022/03/09 10:18:34;;;;;;;4.25;3.70;;;9.30;58.60;;;;;;6175921;23;20094;-74
2022/03/09 10:21:18;;;;;;;3.83;3.22;;;9.30;58.70;;;;;;6203061;23;20009;-73
2022/03/09 10:24:01;;;;;;;4.72;3.80;;;9.30;58.80;;;;;;6200547;23;20015;-73
2022/03/09 10:26:47;;;;;;;11.57;3.08;;;9.50;58.30;;;;;;6205416;23;20011;-74
2022/03/09 10:29:15;;;;;;;7.43;3.13;;;9.70;57.50;;;;;;6200648;23;20027;-76
2022/03/09 10:31:50;;;;;;;4.22;3.65;;;9.80;57.70;;;;;;6199687;23;20322;-71
2022/03/09 10:34:19;;;;;;;5.53;3.63;;;9.80;58.40;;;;;;6202416;23;20357;-73
2022/03/09 10:37:06;;;;;;;4.57;4.00;;;9.90;58.00;;;;;;6202219;23;20019;-74
2022/03/09 10:39:37;;;;;;;5.43;3.83;;;9.90;57.30;;;;;;6203019;23;20008;-74
2022/03/09 10:42:05;;;;;;;6.22;3.80;;;9.90;57.00;;;;;;6199201;23;20021;-74
2022/03/09 10:44:48;;;;;;;6.90;4.45;;;9.90;57.00;;;;;;6202657;23;20341;-75
2022/03/09 10:47:53;;;;;;;7.55;5.35;;;10.00;57.50;;;;;;6199354;23;20005;-73
2022/03/09 10:50:20;;;;;;;14.60;4.45;;;10.10;56.90;;;;;;6048061;23;20038;-73
2022/03/09 10:52:57;;;;;;;5.53;4.88;;;10.00;56.40;;;;;;6050050;23;20081;-73
2022/03/09 10:55:33;;;;;;;5.57;4.82;;;10.00;57.10;;;;;;6134047;23;20081;-73
2022/03/09 10:58:18;;;;;;;5.43;4.72;;;10.20;57.10;;;;;;6200696;23;20000;-73
2022/03/09 11:00:52;;;;;;;6.88;5.30;;;10.30;56.40;;;;;;6201283;23;20009;-73
2022/03/09 11:03:23;;;;;;;7.43;5.55;;;10.40;56.40;;;;;;6202616;23;20004;-73
2022/03/09 11:05:56;;;;;;;5.85;4.85;;;10.40;56.20;;;;;;6201619;23;20058;-76
2022/03/09 11:08:27;;;;;;;5.00;4.43;;;10.50;56.30;;;;;;6203520;23;20009;-73
2022/03/09 11:10:55;;;;;;;6.90;4.53;;;10.60;56.00;;;;;;6202822;23;20023;-73
2022/03/09 11:13:22;;;;;;;7.72;4.55;;;10.50;55.50;;;;;;6202273;23;20008;-73
2022/03/09 11:15:48;;;;;;;5.00;4.25;;;10.30;55.70;;;;;;6201709;23;20126;-73
2022/03/09 11:18:18;;;;;;;8.63;5.38;;;10.10;56.80;;;;;;6199208;23;20004;-73
2022/03/09 11:20:45;;;;;;;6.82;4.88;;;10.30;57.10;;;;;;6203551;23;20033;-73
2022/03/09 11:23:13;;;;;;;7.35;6.03;;;10.50;56.20;;;;;;6203218;23;19997;-73
2022/03/09 11:25:49;;;;;;;7.80;5.38;;;10.50;55.80;;;;;;6204417;23;20419;-73
2022/03/09 11:28:24;;;;;;;6.65;5.50;;;10.40;55.30;;;;;;6196497;23;20625;-74
2022/03/09 11:31:04;;;;;;;8.00;6.78;;;10.40;55.70;;;;;;6203181;23;20095;-74
2022/03/09 11:33:48;;;;;;;8.73;6.35;;;10.40;55.90;;;;;;6203460;23;20028;-74
2022/03/09 11:36:40;;;;;;;7.28;5.32;;;10.40;56.60;;;;;;6203526;23;20009;-74
2022/03/09 11:39:09;;;;;;;5.07;4.28;;;10.40;56.20;;;;;;6175235;23;20016;-73
2022/03/09 11:41:39;;;;;;;6.55;5.05;;;10.50;55.00;;;;;;6202422;23;20196;-74
2022/03/09 11:44:19;;;;;;;8.30;6.18;;;10.50;56.20;;;;;;6201527;23;20434;-73
2022/03/09 11:47:00;;;;;;;6.18;5.32;;;10.40;55.90;;;;;;6199844;23;20011;-73
2022/03/09 11:49:54;;;;;;;6.32;5.35;;;10.40;56.20;;;;;;6202903;23;20012;-74
2022/03/09 11:52:27;;;;;;;5.22;4.63;;;10.40;56.20;;;;;;6191350;23;20063;-75
2022/03/09 11:54:59;;;;;;;6.07;5.00;;;10.50;55.50;;;;;;6200782;23;20012;-77
2022/03/09 11:57:48;;;;;;;7.30;5.72;;;10.40;56.60;;;;;;6200553;23;20001;-73
2022/03/09 12:00:21;;;;;;;6.97;5.32;;;10.30;57.00;;;;;;6199680;23;20039;-74
2022/03/09 12:02:51;;;;;;;9.40;5.65;;;10.30;56.70;;;;;;6175376;23;20020;-74
2022/03/09 12:05:34;;;;;;;7.97;5.43;;;10.20;56.60;;;;;;6201093;23;20008;-74
2022/03/09 12:08:07;;;;;;;6.25;5.45;;;10.10;56.70;;;;;;6203087;23;20103;-74
2022/03/09 12:10:45;;;;;;;6.97;5.10;;;10.10;56.70;;;;;;6202917;23;20165;-74
2022/03/09 12:13:15;;;;;;;5.82;4.55;;;10.20;56.70;;;;;;6205064;23;20082;-74
2022/03/09 12:16:07;;;;;;;6.70;5.05;;;10.30;57.60;;;;;;6204617;23;20011;-75
2022/03/09 12:18:56;;;;;;;6.15;4.75;;;10.40;56.20;;;;;;6203490;23;20008;-74
2022/03/09 12:21:28;;;;;;;5.20;4.63;;;10.40;55.90;;;;;;6204339;23;20024;-75
2022/03/09 12:24:05;;;;;;;5.30;4.13;;;10.40;55.80;;;;;;6201442;23;20004;-75
2022/03/09 12:26:47;;;;;;;4.20;3.75;;;10.50;55.70;;;;;;6202996;23;20658;-75
2022/03/09 12:29:22;;;;;;;4.82;3.90;;;10.40;55.40;;;;;;6203373;23;20028;-76
2022/03/09 12:32:07;;;;;;;3.70;2.97;;;10.50;55.40;;;;;;6203900;23;20063;-74
2022/03/09 12:34:35;;;;;;;3.50;2.90;;;10.60;54.90;;;;;;6202388;23;20001;-75
2022/03/09 12:37:03;;;;;;;3.92;3.53;;;10.60;54.40;;;;;;6203176;23;20011;-75
2022/03/09 12:39:29;;;;;;;8.30;3.47;;;10.60;54.50;;;;;;6201130;23;20399;-75
2022/03/09 12:41:57;;;;;;;5.05;4.13;;;10.40;54.40;;;;;;6201739;23;20047;-74
2022/03/09 12:44:27;;;;;;;3.83;3.08;;;10.40;55.00;;;;;;6203316;23;20001;-74
2022/03/09 12:46:54;;;;;;;3.58;3.28;;;10.50;54.70;;;;;;6202918;23;20012;-74
2022/03/09 12:49:39;;;;;;;5.78;3.30;;;10.50;54.80;;;;;;6203694;23;20103;-73
2022/03/09 12:52:14;;;;;;;4.50;3.28;;;10.50;54.00;;;;;;6203102;23;20004;-74